createdAt,value
2022-12-24T00:01:07.428Z,57.95
2022-12-24T00:03:36.674Z,55.90
2022-12-24T00:06:16.991Z,65.30
2022-12-24T00:08:43.988Z,59.80
2022-12-24T00:11:11.123Z,62.38
2022-12-24T00:13:38.654Z,59.42
2022-12-24T00:16:05.863Z,56.78
2022-12-24T00:18:33.178Z,63.53
2022-12-24T00:21:01.907Z,64.60
2022-12-24T00:23:28.695Z,57.35
2022-12-24T00:25:56.194Z,63.60
2022-12-24T00:28:23.132Z,53.05
2022-12-24T00:30:50.124Z,55.92
2022-12-24T00:33:22.400Z,59.42
2022-12-24T00:35:52.952Z,61.88
2022-12-24T00:38:19.785Z,63.03
2022-12-24T00:40:46.599Z,68.90
2022-12-24T00:43:13.411Z,64.43
2022-12-24T00:45:40.360Z,55.58
2022-12-24T00:48:07.218Z,63.15
2022-12-24T00:50:34.052Z,57.47
2022-12-24T00:53:00.924Z,56.97
2022-12-24T00:55:27.828Z,59.17
2022-12-24T00:57:54.642Z,62.92
2022-12-24T01:00:21.592Z,60.55
2022-12-24T01:02:48.514Z,57.88
2022-12-24T01:05:15.527Z,56.75
2022-12-24T01:07:44.509Z,56.45
2022-12-24T01:10:13.593Z,61.00
2022-12-24T01:12:40.778Z,59.78
2022-12-24T01:15:08.384Z,66.70
2022-12-24T01:17:35.793Z,74.20
2022-12-24T01:20:04.782Z,67.68
2022-12-24T01:22:31.664Z,73.30
2022-12-24T01:24:58.828Z,74.38
2022-12-24T01:27:25.808Z,74.97
2022-12-24T01:29:52.614Z,70.53
2022-12-24T01:32:19.458Z,69.72
2022-12-24T01:34:46.352Z,64.03
2022-12-24T01:37:13.533Z,78.07
2022-12-24T01:39:40.338Z,73.20
2022-12-24T01:42:41.153Z,66.03
2022-12-24T01:45:35.660Z,65.43
2022-12-24T01:48:03.026Z,67.35
2022-12-24T01:50:30.017Z,65.10
2022-12-24T01:52:57.901Z,58.80
2022-12-24T01:55:26.396Z,62.97
2022-12-24T01:57:59.609Z,52.00
2022-12-24T02:00:26.715Z,51.83
2022-12-24T02:02:54.596Z,54.50
2022-12-24T02:05:51.335Z,47.50
2022-12-24T02:08:19.064Z,48.75
2022-12-24T02:10:47.358Z,47.38
2022-12-24T02:13:19.134Z,51.03
2022-12-24T02:15:59.212Z,46.97
2022-12-24T02:19:10.510Z,52.45
2022-12-24T02:21:49.723Z,47.33
2022-12-24T02:24:32.448Z,45.28
2022-12-24T02:27:34.935Z,48.40
2022-12-24T02:30:26.251Z,43.88
2022-12-24T02:33:26.017Z,41.20
2022-12-24T02:35:59.482Z,42.95
2022-12-24T02:39:08.270Z,42.88
2022-12-24T02:41:58.209Z,46.45
2022-12-24T02:44:28.745Z,40.75
2022-12-24T02:46:57.189Z,41.03
2022-12-24T02:49:24.059Z,46.92
2022-12-24T02:51:51.591Z,47.38
2022-12-24T02:54:18.715Z,49.53
2022-12-24T02:57:17.915Z,39.65
2022-12-24T03:00:13.939Z,45.70
2022-12-24T03:03:16.781Z,51.58
2022-12-24T03:05:52.067Z,42.00
2022-12-24T03:08:44.106Z,45.03
2022-12-24T03:11:13.916Z,49.25
2022-12-24T03:13:42.551Z,42.30
2022-12-24T03:16:13.914Z,43.50
2022-12-24T03:18:44.291Z,44.83
2022-12-24T03:21:20.301Z,45.67
2022-12-24T03:23:47.863Z,44.85
2022-12-24T03:26:19.300Z,51.65
2022-12-24T03:28:47.070Z,47.25
2022-12-24T03:31:15.189Z,45.60
2022-12-24T03:33:42.318Z,51.85
2022-12-24T03:36:10.028Z,47.20
2022-12-24T03:38:37.114Z,41.85
2022-12-24T03:41:04.448Z,39.15
2022-12-24T03:43:31.299Z,37.75
2022-12-24T03:45:58.269Z,36.28
2022-12-24T03:48:32.380Z,34.70
2022-12-24T03:50:59.570Z,32.08
2022-12-24T03:53:26.841Z,33.70
2022-12-24T03:55:54.098Z,37.05
2022-12-24T03:58:20.907Z,36.13
2022-12-24T04:00:48.272Z,37.45
2022-12-24T04:03:15.267Z,35.38
2022-12-24T04:05:42.202Z,39.17
2022-12-24T04:08:09.407Z,36.50
2022-12-24T04:10:36.217Z,33.25
2022-12-24T04:13:03.028Z,36.22
2022-12-24T04:15:29.904Z,30.52
2022-12-24T04:17:56.740Z,29.63
2022-12-24T04:20:23.617Z,31.95
2022-12-24T04:22:50.494Z,26.42
2022-12-24T04:25:17.322Z,31.73
2022-12-24T04:27:44.164Z,32.33
2022-12-24T04:30:11.284Z,32.90
2022-12-24T04:32:38.547Z,27.85
2022-12-24T04:35:05.716Z,28.92
2022-12-24T04:37:34.260Z,32.65
2022-12-24T04:40:01.042Z,31.88
2022-12-24T04:42:27.832Z,34.60
2022-12-24T04:44:54.580Z,33.08
2022-12-24T04:47:25.130Z,34.25
2022-12-24T04:49:52.435Z,32.13
2022-12-24T04:52:19.600Z,32.55
2022-12-24T04:54:46.415Z,29.48
2022-12-24T04:57:13.591Z,34.35
2022-12-24T04:59:40.367Z,34.30
2022-12-24T05:02:07.273Z,29.58
2022-12-24T05:04:34.598Z,31.65
2022-12-24T05:07:01.374Z,30.98
2022-12-24T05:09:28.296Z,30.30
2022-12-24T05:11:55.090Z,29.83
2022-12-24T05:14:21.995Z,28.58
2022-12-24T05:16:48.947Z,24.33
2022-12-24T05:19:15.723Z,27.60
2022-12-24T05:21:42.710Z,23.42
2022-12-24T05:24:29.984Z,26.05
2022-12-24T05:26:58.655Z,30.02
2022-12-24T05:29:25.419Z,28.40
2022-12-24T05:31:52.199Z,29.92
2022-12-24T05:34:19.427Z,31.15
2022-12-24T05:36:46.333Z,27.85
2022-12-24T05:39:16.437Z,28.02
2022-12-24T05:41:44.534Z,26.65
2022-12-24T05:44:11.385Z,26.48
2022-12-24T05:46:38.363Z,26.17
2022-12-24T05:49:05.217Z,29.00
2022-12-24T05:51:32.463Z,30.13
2022-12-24T05:53:59.819Z,27.05
2022-12-24T05:56:27.005Z,28.08
2022-12-24T05:58:54.852Z,29.35
2022-12-24T06:01:22.903Z,28.52
2022-12-24T06:03:50.731Z,27.38
2022-12-24T06:06:21.541Z,28.10
2022-12-24T06:08:49.856Z,26.77
2022-12-24T06:11:19.165Z,29.27
2022-12-24T06:13:46.069Z,26.40
2022-12-24T06:16:15.282Z,30.73
2022-12-24T06:18:42.892Z,30.80
2022-12-24T06:21:10.690Z,29.00
2022-12-24T06:23:39.546Z,30.80
2022-12-24T06:26:08.230Z,31.95
2022-12-24T06:28:37.249Z,36.47
2022-12-24T06:31:05.864Z,35.55
2022-12-24T06:33:33.627Z,35.42
2022-12-24T06:36:00.945Z,38.42
2022-12-24T06:38:30.348Z,41.90
2022-12-24T06:40:57.591Z,40.78
2022-12-24T06:43:24.500Z,36.72
2022-12-24T06:45:52.833Z,33.70
2022-12-24T06:48:20.103Z,37.08
2022-12-24T06:50:47.438Z,40.83
2022-12-24T06:53:14.377Z,36.33
2022-12-24T06:55:41.479Z,30.02
2022-12-24T06:58:08.379Z,34.65
2022-12-24T07:00:35.758Z,53.47
2022-12-24T07:03:02.737Z,30.52
2022-12-24T07:05:29.864Z,41.65
2022-12-24T07:07:57.125Z,46.58
2022-12-24T07:10:24.592Z,48.83
2022-12-24T07:12:51.527Z,40.60
2022-12-24T07:15:18.778Z,54.97
2022-12-24T07:17:45.658Z,47.17
2022-12-24T07:20:14.972Z,42.47
2022-12-24T07:22:42.874Z,41.03
2022-12-24T07:25:10.837Z,41.60
2022-12-24T07:27:38.432Z,40.80
2022-12-24T07:30:05.971Z,39.95
2022-12-24T07:32:33.250Z,43.30
2022-12-24T07:35:00.125Z,38.72
2022-12-24T07:37:27.034Z,37.67
2022-12-24T07:39:54.217Z,42.65
2022-12-24T07:42:21.076Z,41.75
2022-12-24T07:44:47.957Z,46.80
2022-12-24T07:47:14.865Z,40.15
2022-12-24T07:49:41.840Z,41.78
2022-12-24T07:52:09.259Z,34.90
2022-12-24T07:54:36.118Z,33.40
2022-12-24T07:57:03.046Z,35.20
2022-12-24T07:59:29.851Z,33.33
2022-12-24T08:01:56.871Z,34.10
2022-12-24T08:04:23.822Z,42.25
2022-12-24T08:06:50.688Z,46.70
2022-12-24T08:09:17.543Z,57.13
2022-12-24T08:11:51.350Z,60.38
2022-12-24T08:14:18.768Z,68.10
2022-12-24T08:16:45.774Z,67.20
2022-12-24T08:19:12.589Z,73.63
2022-12-24T08:21:40.314Z,73.10
2022-12-24T08:24:07.752Z,87.70
2022-12-24T08:26:34.579Z,87.10
2022-12-24T08:29:02.281Z,85.97
2022-12-24T08:31:29.408Z,83.70
2022-12-24T08:33:56.290Z,66.63
2022-12-24T08:36:23.069Z,77.68
2022-12-24T08:38:50.237Z,61.63
2022-12-24T08:41:17.438Z,66.05
2022-12-24T08:43:44.629Z,79.32
2022-12-24T08:46:11.536Z,80.85
2022-12-24T08:48:38.526Z,79.03
2022-12-24T08:51:10.144Z,75.55
2022-12-24T08:53:38.069Z,66.93
2022-12-24T08:56:07.100Z,68.20
2022-12-24T08:58:34.445Z,75.85
2022-12-24T09:01:01.901Z,77.63
2022-12-24T09:03:28.781Z,81.13
2022-12-24T09:05:56.339Z,85.28
2022-12-24T09:08:23.798Z,77.95
2022-12-24T09:10:51.363Z,65.82
2022-12-24T09:13:18.799Z,65.43
2022-12-24T09:15:54.324Z,72.65
2022-12-24T09:18:21.192Z,68.72
2022-12-24T09:20:53.939Z,72.03
2022-12-24T09:23:25.728Z,67.90
2022-12-24T09:25:52.936Z,68.38
2022-12-24T09:28:20.552Z,65.47
2022-12-24T09:31:02.721Z,63.50
2022-12-24T09:33:32.344Z,58.03
2022-12-24T09:35:59.588Z,68.55
2022-12-24T09:38:26.508Z,62.50
2022-12-24T09:40:55.509Z,74.32
2022-12-24T09:43:25.471Z,70.80
2022-12-24T09:46:14.117Z,75.90
2022-12-24T09:48:45.702Z,77.15
2022-12-24T09:51:21.318Z,71.38
2022-12-24T09:53:55.446Z,56.25
2022-12-24T09:56:33.506Z,67.38
2022-12-24T09:59:02.942Z,52.13
2022-12-24T10:01:31.897Z,50.25
2022-12-24T10:04:03.614Z,56.70
2022-12-24T10:06:55.629Z,55.42
2022-12-24T10:09:46.367Z,58.58
2022-12-24T10:12:34.339Z,56.28
2022-12-24T10:15:27.933Z,54.58
2022-12-24T10:17:57.737Z,51.83
2022-12-24T10:20:27.611Z,47.08
2022-12-24T10:22:57.816Z,45.85
2022-12-24T10:25:34.558Z,51.35
2022-12-24T10:28:06.189Z,54.35
2022-12-24T10:30:34.687Z,55.97
2022-12-24T10:33:01.774Z,49.47
2022-12-24T10:35:36.489Z,47.78
2022-12-24T10:38:04.446Z,50.63
2022-12-24T10:40:40.972Z,56.28
2022-12-24T10:43:20.296Z,67.28
2022-12-24T10:45:55.586Z,75.43
2022-12-24T10:48:36.165Z,64.22
2022-12-24T10:51:05.992Z,70.03
2022-12-24T10:53:44.533Z,83.13
2022-12-24T10:56:15.678Z,74.00
2022-12-24T10:58:50.879Z,85.85
2022-12-24T11:01:18.408Z,81.57
2022-12-24T11:03:45.481Z,72.18
2022-12-24T11:06:15.308Z,64.78
2022-12-24T11:08:44.284Z,73.97
2022-12-24T11:11:20.654Z,78.85
2022-12-24T11:13:50.951Z,90.13
2022-12-24T11:16:22.192Z,100.55
2022-12-24T11:18:52.678Z,102.78
2022-12-24T11:21:40.195Z,102.75
2022-12-24T11:24:13.195Z,114.45
2022-12-24T11:26:44.605Z,118.28
2022-12-24T11:29:21.887Z,138.52
2022-12-24T11:31:49.903Z,132.90
2022-12-24T11:34:29.464Z,131.52
2022-12-24T11:37:15.329Z,113.07
2022-12-24T11:39:46.864Z,95.68
2022-12-24T11:42:36.816Z,84.90
2022-12-24T11:45:25.926Z,69.95
2022-12-24T11:47:54.311Z,64.20
2022-12-24T11:50:35.645Z,67.07
2022-12-24T11:53:19.187Z,61.72
2022-12-24T11:55:52.001Z,54.78
2022-12-24T11:58:46.077Z,57.33
2022-12-24T12:01:30.592Z,60.83
2022-12-24T12:04:07.154Z,58.95
2022-12-24T12:06:43.076Z,68.05
2022-12-24T12:09:19.105Z,73.32
2022-12-24T12:11:52.303Z,79.45
2022-12-24T12:14:30.276Z,86.97
2022-12-24T12:17:06.785Z,83.35
2022-12-24T12:19:43.681Z,74.35
2022-12-24T12:22:35.597Z,71.97
2022-12-24T12:25:04.588Z,76.25
2022-12-24T12:27:33.541Z,79.85
2022-12-24T12:30:04.872Z,77.30
2022-12-24T12:32:59.513Z,79.97
2022-12-24T12:35:35.387Z,78.70
2022-12-24T12:38:23.139Z,80.30
2022-12-24T12:41:02.196Z,62.78
2022-12-24T12:43:53.183Z,72.75
2022-12-24T12:46:22.791Z,103.10
2022-12-24T12:49:14.005Z,105.43
2022-12-24T12:51:46.036Z,103.30
2022-12-24T12:54:28.366Z,113.38
2022-12-24T12:57:02.717Z,108.75
2022-12-24T12:59:47.734Z,106.82
2022-12-24T13:02:51.570Z,118.70
2022-12-24T13:05:43.046Z,100.07
2022-12-24T13:08:37.219Z,94.53
2022-12-24T13:11:22.494Z,102.72
2022-12-24T13:14:01.163Z,120.05
2022-12-24T13:16:44.668Z,108.53
2022-12-24T13:19:48.988Z,114.00
2022-12-24T13:22:18.551Z,97.15
2022-12-24T13:24:52.648Z,119.13
2022-12-24T13:27:34.009Z,124.13
2022-12-24T13:30:12.875Z,102.50
2022-12-24T13:32:51.178Z,101.22
2022-12-24T13:35:21.290Z,111.25
2022-12-24T13:37:49.902Z,113.72
2022-12-24T13:40:28.112Z,105.78
2022-12-24T13:43:01.364Z,115.57
2022-12-24T13:45:31.717Z,129.48
2022-12-24T13:48:07.834Z,115.38
2022-12-24T13:50:37.956Z,112.40
2022-12-24T13:53:06.970Z,109.70
2022-12-24T13:55:34.778Z,103.55
2022-12-24T13:58:03.963Z,113.95
2022-12-24T14:00:42.077Z,104.20
2022-12-24T14:03:15.374Z,92.80
2022-12-24T14:05:46.562Z,97.90
2022-12-24T14:08:28.511Z,97.80
2022-12-24T14:11:04.999Z,101.85
2022-12-24T14:13:41.119Z,76.22
2022-12-24T14:16:23.209Z,86.68
2022-12-24T14:19:11.648Z,83.03
2022-12-24T14:21:55.536Z,59.53
2022-12-24T14:24:38.398Z,46.97
2022-12-24T14:27:24.898Z,59.10
2022-12-24T14:30:25.732Z,49.95
2022-12-24T14:32:54.184Z,53.88
2022-12-24T14:35:25.474Z,40.10
2022-12-24T14:38:01.962Z,25.58
2022-12-24T14:40:38.768Z,23.55
2022-12-24T14:43:25.227Z,19.85
2022-12-24T14:46:09.588Z,17.75
2022-12-24T14:48:57.697Z,12.85
2022-12-24T14:51:51.835Z,11.98
2022-12-24T14:54:39.268Z,12.88
2022-12-24T14:57:14.346Z,15.48
2022-12-24T14:59:49.134Z,19.27
2022-12-24T15:02:40.943Z,18.42
2022-12-24T15:05:29.652Z,15.93
2022-12-24T15:08:02.551Z,17.92
2022-12-24T15:10:37.115Z,24.95
2022-12-24T15:13:22.266Z,18.77
2022-12-24T15:15:52.759Z,14.77
2022-12-24T15:18:25.318Z,16.00
2022-12-24T15:21:01.768Z,15.27
2022-12-24T15:23:35.096Z,14.15
2022-12-24T15:26:26.225Z,13.63
2022-12-24T15:29:02.167Z,14.30
2022-12-24T15:31:30.493Z,15.30
2022-12-24T15:34:01.635Z,14.35
2022-12-24T15:36:35.617Z,15.30
2022-12-24T15:39:06.218Z,16.42
2022-12-24T15:42:03.063Z,15.55
2022-12-24T15:44:36.980Z,14.43
2022-12-24T15:47:07.113Z,16.25
2022-12-24T15:49:35.097Z,15.45
2022-12-24T15:52:08.286Z,13.40
2022-12-24T15:54:35.399Z,14.57
2022-12-24T15:57:33.359Z,14.38
2022-12-24T16:00:02.906Z,13.55
2022-12-24T16:02:45.329Z,15.27
2022-12-24T16:05:33.312Z,16.70
2022-12-24T16:08:07.660Z,18.85
2022-12-24T16:10:47.589Z,20.58
2022-12-24T16:13:21.426Z,23.75
2022-12-24T16:16:01.970Z,26.20
2022-12-24T16:18:42.377Z,28.48
2022-12-24T16:21:09.927Z,33.30
2022-12-24T16:23:47.294Z,40.92
2022-12-24T16:26:15.003Z,46.10
2022-12-24T16:28:41.892Z,53.05
2022-12-24T16:31:28.544Z,57.67
2022-12-24T16:33:59.047Z,54.85
2022-12-24T16:36:26.356Z,52.55
2022-12-24T16:39:12.056Z,52.08
2022-12-24T16:41:57.389Z,44.70
2022-12-24T16:44:24.673Z,38.88
2022-12-24T16:46:53.584Z,38.17
2022-12-24T16:49:22.654Z,35.25
2022-12-24T16:51:49.956Z,36.72
2022-12-24T16:54:16.776Z,30.98
2022-12-24T16:56:46.167Z,34.00
2022-12-24T16:59:22.068Z,33.45
2022-12-24T17:01:50.487Z,32.72
2022-12-24T17:04:19.366Z,33.20
2022-12-24T17:06:48.635Z,31.63
2022-12-24T17:09:15.439Z,33.03
2022-12-24T17:11:42.342Z,30.90
2022-12-24T17:14:19.833Z,40.90
2022-12-24T17:16:50.560Z,31.90
2022-12-24T17:19:18.132Z,31.02
2022-12-24T17:21:45.980Z,28.10
2022-12-24T17:24:13.192Z,30.20
2022-12-24T17:26:41.621Z,52.88
2022-12-24T17:29:09.233Z,50.20
2022-12-24T17:31:39.569Z,27.48
2022-12-24T17:34:06.950Z,34.47
2022-12-24T17:36:33.990Z,126.20
2022-12-24T17:39:00.857Z,40.55
2022-12-24T17:41:27.901Z,73.25
2022-12-24T17:43:54.757Z,27.52
2022-12-24T17:46:23.813Z,23.73
2022-12-24T17:48:51.858Z,27.40
2022-12-24T17:51:21.082Z,40.97
2022-12-24T17:53:48.934Z,96.07
2022-12-24T17:56:16.576Z,109.63
2022-12-24T17:58:45.850Z,94.43
2022-12-24T18:01:21.901Z,76.15
2022-12-24T18:03:51.433Z,92.53
2022-12-24T18:06:19.776Z,83.05
2022-12-24T18:08:48.057Z,71.60
2022-12-24T18:11:18.148Z,74.35
2022-12-24T18:13:46.335Z,81.85
2022-12-24T18:16:23.010Z,64.68
2022-12-24T18:18:51.401Z,79.90
2022-12-24T18:21:20.578Z,67.97
2022-12-24T18:23:49.664Z,55.83
2022-12-24T18:26:18.303Z,58.00
2022-12-24T18:28:46.143Z,61.78
2022-12-24T18:31:16.722Z,56.58
2022-12-24T18:33:45.508Z,43.45
2022-12-24T18:36:13.094Z,39.65
2022-12-24T18:38:40.428Z,45.40
2022-12-24T18:41:10.456Z,42.85
2022-12-24T18:43:37.320Z,42.60
2022-12-24T18:46:09.248Z,49.42
2022-12-24T18:48:36.426Z,44.00
2022-12-24T18:51:05.144Z,44.88
2022-12-24T18:53:32.307Z,45.35
2022-12-24T18:56:13.881Z,42.30
2022-12-24T18:58:42.310Z,39.80
2022-12-24T21:08:40.946Z,85.97
2022-12-24T21:16:35.893Z,67.38
2022-12-24T21:19:03.354Z,108.43
2022-12-24T21:21:30.339Z,88.57
2022-12-24T21:23:57.470Z,83.93
2022-12-24T21:26:24.411Z,91.88
2022-12-24T21:28:51.282Z,97.38
2022-12-24T21:31:18.317Z,91.63
2022-12-24T21:33:46.044Z,87.50
2022-12-24T21:36:14.384Z,85.53
2022-12-24T21:38:41.225Z,81.30
2022-12-24T21:41:12.194Z,74.15
2022-12-24T21:43:39.749Z,84.75
2022-12-24T21:46:19.426Z,68.57
2022-12-24T21:49:05.024Z,62.35
2022-12-24T21:51:32.672Z,63.17
2022-12-24T21:54:18.382Z,56.70
2022-12-24T21:57:03.812Z,59.38
2022-12-24T21:59:30.749Z,44.70
2022-12-24T22:01:58.188Z,49.60
2022-12-24T22:04:25.940Z,39.65
2022-12-24T22:07:11.422Z,43.00
2022-12-24T22:09:58.142Z,43.95
2022-12-24T22:12:26.121Z,39.70
2022-12-24T22:14:53.050Z,35.17
2022-12-24T22:17:25.045Z,35.45
2022-12-24T22:19:52.469Z,35.45
2022-12-24T22:22:19.251Z,31.80
2022-12-24T22:24:46.557Z,35.08
2022-12-24T22:27:13.311Z,32.53
2022-12-24T22:29:40.227Z,32.20
2022-12-24T22:32:07.225Z,34.42
2022-12-24T22:34:36.037Z,33.08
2022-12-24T22:37:03.002Z,35.92
2022-12-24T22:39:29.802Z,33.00
2022-12-24T22:41:57.976Z,29.00
2022-12-24T22:44:25.549Z,29.60
2022-12-24T22:46:52.470Z,31.38
2022-12-24T22:49:19.669Z,30.40
2022-12-24T22:51:46.918Z,33.38
2022-12-24T22:54:13.726Z,43.05
2022-12-24T22:56:41.562Z,46.53
2022-12-24T22:59:12.321Z,48.08
2022-12-24T23:01:41.258Z,51.45
2022-12-24T23:04:08.193Z,54.05
2022-12-24T23:06:35.777Z,47.70
2022-12-24T23:09:04.991Z,55.80
2022-12-24T23:11:31.781Z,49.33
2022-12-24T23:14:17.509Z,55.90
2022-12-24T23:16:44.779Z,48.85
2022-12-24T23:19:11.766Z,45.88
2022-12-24T23:21:38.596Z,45.58
2022-12-24T23:24:06.128Z,39.03
2022-12-24T23:26:32.942Z,39.17
2022-12-24T23:29:00.281Z,40.30
2022-12-24T23:31:27.513Z,38.75
2022-12-24T23:33:54.398Z,41.63
2022-12-24T23:36:21.640Z,47.90
2022-12-24T23:38:48.867Z,51.42
2022-12-24T23:41:18.795Z,51.47
2022-12-24T23:43:46.043Z,48.10
2022-12-24T23:46:18.315Z,51.15
2022-12-24T23:48:47.916Z,51.13
2022-12-24T23:51:17.502Z,47.35
2022-12-24T23:53:44.379Z,42.63
2022-12-24T23:56:12.674Z,49.33
2022-12-24T23:58:41.160Z,41.80
